ウィニペグ の空港の天気 - METARとTAF

ウィニペグ国際空港 ( CYWG / YWG ) - カナダ マニトバ州ウィニペグ
飛行場実況気象(Metar)
観測時間02/17 08:00 CST (02/17 14:00 UTC)
風向・風速北東 3m/s
視程10km以上
天気現象
全天の8割程度の雲 雲底高度 3660m
気温-22℃
湿度77%
気圧1028.8hPa
METARCYWG 171400Z 04006KT 15SM BKN120 M22/M25 A3029 RMK AC7 SLP288
過去の天気等 Google飛行場航空写真 Wunderground天気予報

過去48時間のMETAR

飛行場予報(TAF)
発表時間: 2/17 05:38 CST (2/17 11:38 UTC)
予報対象時間: 17日6時 CST ~ 18日6時 CST
風向・風速北北東 3m/s
視程10km以上
全天の4割程度の雲 雲底高度 3660m
17日6時 CST ~ 17日10時 CST に一時的に
全天の8割程度の雲 雲底高度 3660m
17日12時 CST から
風向・風速北北東 4m/s
視程10km以上
少しの雲 雲底高度 3660m
全天の4割程度の雲 雲底高度 6710m
17日20時 CST から
風向・風速北 4m/s
視程10km以上
全天の4割程度の雲 雲底高度 6100m
18日4時 CST ~ 18日6時 CST に徐々に
風向・風速北西 3m/s
TAF CYWG 171138Z 1712/1812 03006KT P6SM SCT120
TEMPO 1712/1716 BKN120
FM171800 02008KT P6SM FEW120 SCT220
FM180200 35008KT P6SM SCT200
BECMG 1810/1812 32006KT RMK NXT FCST BY 171800Z